Main page
METAR-TAF:

METAR-TAF

Airports :

Altenstadt, Germany

Altenstadt Air Base

latitude: 47-50N, longitude: 010-52E, elevation: 739 m

Current weather observation

The report was made 1 hour and 5 minutes ago, at 18:20 UTC
Wind 3 kt from variable directions
Temperature 13°C
Humidity 72%
Pressure 1016 hPa

METAR: ETHA 211820Z AUTO VRB03KT //// // ////// 13/08 Q1016 ///

Time: 21:25 (19:25 UTC)


TAF: missing

Weather observations and forecasts of more than 4000 airports (METAR and TAF reports).

The available stations are represented by yellow and red dots on the map.

Hover mouse over dot to see the name of the station.

Then click to see weather observations and forecasts.

To change the map : click on the green buttons with a black cross to zoom in, on the green button with a dash to zoom out, or on the green arrows for adjacent maps.


METAR-TAF: